sensor_id;sensor_type;location;lat;lon;timestamp;pressure;altitude;pressure_sealevel;temperature;humidity
59686;BME280;45554;51.096;16.976;2022-12-07T00:01:43;99785.11;;;1.74;90.57
59686;BME280;45554;51.096;16.976;2022-12-07T00:04:14;99788.58;;;1.73;90.67
59686;BME280;45554;51.096;16.976;2022-12-07T00:06:44;99786.52;;;1.73;90.96
59686;BME280;45554;51.096;16.976;2022-12-07T00:09:14;99783.77;;;1.73;90.76
59686;BME280;45554;51.096;16.976;2022-12-07T00:11:44;99781.70;;;1.73;90.65
59686;BME280;45554;51.096;16.976;2022-12-07T00:14:13;99780.85;;;1.72;90.83
59686;BME280;45554;51.096;16.976;2022-12-07T00:16:44;99781.23;;;1.71;90.49
59686;BME280;45554;51.096;16.976;2022-12-07T00:19:13;99773.84;;;1.70;90.39
59686;BME280;45554;51.096;16.976;2022-12-07T00:21:41;99766.95;;;1.69;90.56
59686;BME280;45554;51.096;16.976;2022-12-07T00:24:10;99765.60;;;1.68;90.33
59686;BME280;45554;51.096;16.976;2022-12-07T00:26:40;99769.41;;;1.67;90.43
59686;BME280;45554;51.096;16.976;2022-12-07T00:29:19;99765.94;;;1.68;90.40
59686;BME280;45554;51.096;16.976;2022-12-07T00:31:47;99759.23;;;1.67;90.36
59686;BME280;45554;51.096;16.976;2022-12-07T00:34:20;99760.11;;;1.66;90.22
59686;BME280;45554;51.096;16.976;2022-12-07T00:36:49;99752.75;;;1.63;90.13
59686;BME280;45554;51.096;16.976;2022-12-07T00:39:17;99757.24;;;1.63;90.04
59686;BME280;45554;51.096;16.976;2022-12-07T00:41:45;99757.42;;;1.63;90.24
59686;BME280;45554;51.096;16.976;2022-12-07T00:44:13;99761.05;;;1.63;90.08
59686;BME280;45554;51.096;16.976;2022-12-07T00:46:40;99753.28;;;1.62;89.99
59686;BME280;45554;51.096;16.976;2022-12-07T00:49:08;99754.17;;;1.62;90.14
59686;BME280;45554;51.096;16.976;2022-12-07T00:51:36;99757.98;;;1.61;90.22
59686;BME280;45554;51.096;16.976;2022-12-07T00:54:04;99755.23;;;1.60;90.28
59686;BME280;45554;51.096;16.976;2022-12-07T00:56:32;99759.73;;;1.60;90.57
59686;BME280;45554;51.096;16.976;2022-12-07T00:59:02;99763.54;;;1.60;90.23
59686;BME280;45554;51.096;16.976;2022-12-07T01:02:01;99764.06;;;1.60;90.45
59686;BME280;45554;51.096;16.976;2022-12-07T01:05:51;99766.70;;;1.58;90.26
59686;BME280;45554;51.096;16.976;2022-12-07T01:09:31;99769.12;;;1.59;90.32
59686;BME280;45554;51.096;16.976;2022-12-07T01:12:58;99768.45;;;1.58;90.55
59686;BME280;45554;51.096;16.976;2022-12-07T01:16:18;99765.67;;;1.58;90.43
59686;BME280;45554;51.096;16.976;2022-12-07T01:18:50;99763.42;;;1.58;90.44
59686;BME280;45554;51.096;16.976;2022-12-07T01:21:21;99760.13;;;1.59;90.56
59686;BME280;45554;51.096;16.976;2022-12-07T01:23:53;99755.02;;;1.56;90.39
59686;BME280;45554;51.096;16.976;2022-12-07T01:26:24;99758.48;;;1.56;90.38
59686;BME280;45554;51.096;16.976;2022-12-07T01:28:53;99752.79;;;1.55;90.46
59686;BME280;45554;51.096;16.976;2022-12-07T01:31:24;99752.96;;;1.56;90.38
59686;BME280;45554;51.096;16.976;2022-12-07T01:33:58;99754.51;;;1.56;90.37
59686;BME280;45554;51.096;16.976;2022-12-07T01:36:27;99754.88;;;1.55;90.33
59686;BME280;45554;51.096;16.976;2022-12-07T01:38:58;99755.21;;;1.55;90.54
59686;BME280;45554;51.096;16.976;2022-12-07T01:41:30;99760.88;;;1.56;90.43
59686;BME280;45554;51.096;16.976;2022-12-07T01:47:07;99764.73;;;1.54;90.17
59686;BME280;45554;51.096;16.976;2022-12-07T01:49:47;99755.25;;;1.54;90.34
59686;BME280;45554;51.096;16.976;2022-12-07T01:52:21;99755.79;;;1.53;90.52
59686;BME280;45554;51.096;16.976;2022-12-07T01:55:00;99758.23;;;1.53;90.65
59686;BME280;45554;51.096;16.976;2022-12-07T01:57:30;99754.27;;;1.52;90.83
59686;BME280;45554;51.096;16.976;2022-12-07T02:00:01;99754.27;;;1.52;90.91
59686;BME280;45554;51.096;16.976;2022-12-07T02:02:44;99758.42;;;1.51;90.91
59686;BME280;45554;51.096;16.976;2022-12-07T02:05:14;99756.77;;;1.49;91.07
59686;BME280;45554;51.096;16.976;2022-12-07T02:07:42;99758.22;;;1.46;91.10
59686;BME280;45554;51.096;16.976;2022-12-07T02:12:50;99753.71;;;1.40;91.22
59686;BME280;45554;51.096;16.976;2022-12-07T02:15:20;99755.50;;;1.37;91.20
59686;BME280;45554;51.096;16.976;2022-12-07T02:17:59;99761.48;;;1.33;91.31
59686;BME280;45554;51.096;16.976;2022-12-07T02:20:49;99760.89;;;1.29;91.70
59686;BME280;45554;51.096;16.976;2022-12-07T02:23:50;99758.05;;;1.25;91.82
59686;BME280;45554;51.096;16.976;2022-12-07T02:33:06;99759.06;;;1.12;92.40
59686;BME280;45554;51.096;16.976;2022-12-07T02:35:55;99761.91;;;1.08;92.05
59686;BME280;45554;51.096;16.976;2022-12-07T02:38:36;99764.77;;;1.04;92.57
59686;BME280;45554;51.096;16.976;2022-12-07T02:41:25;99762.08;;;1.01;92.80
59686;BME280;45554;51.096;16.976;2022-12-07T02:44:00;99765.23;;;0.99;92.77
59686;BME280;45554;51.096;16.976;2022-12-07T02:46:32;99761.10;;;0.99;92.71
59686;BME280;45554;51.096;16.976;2022-12-07T02:49:02;99757.13;;;0.99;92.87
59686;BME280;45554;51.096;16.976;2022-12-07T02:51:31;99756.29;;;0.98;93.28
59686;BME280;45554;51.096;16.976;2022-12-07T02:53:59;99754.36;;;0.99;93.24
59686;BME280;45554;51.096;16.976;2022-12-07T02:59:18;99760.20;;;1.01;93.27
59686;BME280;45554;51.096;16.976;2022-12-07T03:02:08;99753.27;;;1.01;93.25
59686;BME280;45554;51.096;16.976;2022-12-07T03:10:59;99745.64;;;1.03;93.25
59686;BME280;45554;51.096;16.976;2022-12-07T03:16:10;99742.84;;;1.05;93.33
59686;BME280;45554;51.096;16.976;2022-12-07T03:18:55;99742.13;;;1.06;93.06
59686;BME280;45554;51.096;16.976;2022-12-07T03:21:27;99736.61;;;1.05;93.12
59686;BME280;45554;51.096;16.976;2022-12-07T03:24:00;99740.38;;;1.06;93.16
59686;BME280;45554;51.096;16.976;2022-12-07T03:26:35;99739.84;;;1.07;93.29
59686;BME280;45554;51.096;16.976;2022-12-07T03:29:11;99736.55;;;1.08;93.14
59686;BME280;45554;51.096;16.976;2022-12-07T03:31:44;99738.96;;;1.08;93.06
59686;BME280;45554;51.096;16.976;2022-12-07T03:34:18;99739.30;;;1.08;93.12
59686;BME280;45554;51.096;16.976;2022-12-07T03:37:00;99733.92;;;1.09;93.01
59686;BME280;45554;51.096;16.976;2022-12-07T03:42:08;99730.95;;;1.11;93.20
59686;BME280;45554;51.096;16.976;2022-12-07T03:44:38;99726.97;;;1.12;92.99
59686;BME280;45554;51.096;16.976;2022-12-07T03:50:28;99720.34;;;1.14;93.25
59686;BME280;45554;51.096;16.976;2022-12-07T03:53:04;99716.50;;;1.16;93.07
59686;BME280;45554;51.096;16.976;2022-12-07T03:55:39;99716.46;;;1.17;92.88
59686;BME280;45554;51.096;16.976;2022-12-07T03:58:12;99716.11;;;1.18;92.86
59686;BME280;45554;51.096;16.976;2022-12-07T04:00:42;99709.38;;;1.17;92.80
59686;BME280;45554;51.096;16.976;2022-12-07T04:03:11;99711.29;;;1.17;92.74
59686;BME280;45554;51.096;16.976;2022-12-07T04:05:39;99714.38;;;1.18;92.83
59686;BME280;45554;51.096;16.976;2022-12-07T04:08:08;99715.76;;;1.18;92.97
59686;BME280;45554;51.096;16.976;2022-12-07T04:10:36;99717.33;;;1.17;92.93
59686;BME280;45554;51.096;16.976;2022-12-07T04:13:04;99717.52;;;1.17;92.84
59686;BME280;45554;51.096;16.976;2022-12-07T04:15:32;99718.56;;;1.17;92.86
59686;BME280;45554;51.096;16.976;2022-12-07T04:18:00;99722.54;;;1.16;92.92
59686;BME280;45554;51.096;16.976;2022-12-07T04:20:28;99723.93;;;1.16;92.93
59686;BME280;45554;51.096;16.976;2022-12-07T04:22:56;99726.05;;;1.14;92.96
59686;BME280;45554;51.096;16.976;2022-12-07T04:25:24;99729.84;;;1.14;92.92
59686;BME280;45554;51.096;16.976;2022-12-07T04:27:52;99721.28;;;1.11;92.98
59686;BME280;45554;51.096;16.976;2022-12-07T04:30:21;99723.42;;;1.08;93.01
59686;BME280;45554;51.096;16.976;2022-12-07T04:32:49;99723.29;;;1.06;93.26
59686;BME280;45554;51.096;16.976;2022-12-07T04:35:17;99719.52;;;1.05;93.57
59686;BME280;45554;51.096;16.976;2022-12-07T04:37:44;99720.08;;;1.04;93.29
59686;BME280;45554;51.096;16.976;2022-12-07T04:40:12;99721.65;;;1.03;93.67
59686;BME280;45554;51.096;16.976;2022-12-07T04:42:41;99716.31;;;1.02;93.79
59686;BME280;45554;51.096;16.976;2022-12-07T04:45:09;99718.75;;;1.02;93.70
59686;BME280;45554;51.096;16.976;2022-12-07T04:47:38;99716.35;;;1.01;93.78
59686;BME280;45554;51.096;16.976;2022-12-07T04:50:06;99714.08;;;1.02;94.04
59686;BME280;45554;51.096;16.976;2022-12-07T04:52:34;99715.27;;;1.03;94.01
59686;BME280;45554;51.096;16.976;2022-12-07T04:55:02;99710.77;;;1.04;94.06
59686;BME280;45554;51.096;16.976;2022-12-07T04:57:30;99709.17;;;1.05;93.99
59686;BME280;45554;51.096;16.976;2022-12-07T04:59:58;99712.08;;;1.06;93.99
59686;BME280;45554;51.096;16.976;2022-12-07T05:02:26;99707.92;;;1.07;94.15
59686;BME280;45554;51.096;16.976;2022-12-07T05:04:54;99706.48;;;1.10;94.11
59686;BME280;45554;51.096;16.976;2022-12-07T05:07:22;99709.20;;;1.12;94.17
59686;BME280;45554;51.096;16.976;2022-12-07T05:09:50;99703.60;;;1.14;94.20
59686;BME280;45554;51.096;16.976;2022-12-07T05:12:18;99706.30;;;1.16;94.30
59686;BME280;45554;51.096;16.976;2022-12-07T05:14:46;99705.93;;;1.17;94.11
59686;BME280;45554;51.096;16.976;2022-12-07T05:17:14;99706.86;;;1.22;94.24
59686;BME280;45554;51.096;16.976;2022-12-07T05:19:42;99710.45;;;1.23;94.22
59686;BME280;45554;51.096;16.976;2022-12-07T05:22:09;99707.80;;;1.25;94.38
59686;BME280;45554;51.096;16.976;2022-12-07T05:24:38;99707.25;;;1.27;94.18
59686;BME280;45554;51.096;16.976;2022-12-07T05:27:06;99707.58;;;1.27;94.14
59686;BME280;45554;51.096;16.976;2022-12-07T05:29:34;99708.55;;;1.30;94.00
59686;BME280;45554;51.096;16.976;2022-12-07T05:32:02;99707.48;;;1.31;93.87
59686;BME280;45554;51.096;16.976;2022-12-07T05:34:30;99709.02;;;1.32;93.70
59686;BME280;45554;51.096;16.976;2022-12-07T05:36:58;99711.89;;;1.34;93.42
59686;BME280;45554;51.096;16.976;2022-12-07T05:39:26;99713.63;;;1.34;93.20
59686;BME280;45554;51.096;16.976;2022-12-07T05:41:53;99719.46;;;1.36;93.26
59686;BME280;45554;51.096;16.976;2022-12-07T05:44:44;99709.08;;;1.36;92.85
59686;BME280;45554;51.096;16.976;2022-12-07T05:47:14;99711.98;;;1.37;92.71
59686;BME280;45554;51.096;16.976;2022-12-07T05:49:43;99721.80;;;1.38;92.19
59686;BME280;45554;51.096;16.976;2022-12-07T05:52:11;99716.09;;;1.39;91.97
59686;BME280;45554;51.096;16.976;2022-12-07T05:54:39;99727.27;;;1.40;91.76
59686;BME280;45554;51.096;16.976;2022-12-07T05:57:06;99715.33;;;1.41;91.70
59686;BME280;45554;51.096;16.976;2022-12-07T05:59:34;99708.56;;;1.43;91.67
59686;BME280;45554;51.096;16.976;2022-12-07T06:02:08;99708.56;;;1.43;91.51
59686;BME280;45554;51.096;16.976;2022-12-07T06:04:41;99717.69;;;1.44;91.08
59686;BME280;45554;51.096;16.976;2022-12-07T06:07:10;99711.14;;;1.44;91.00
59686;BME280;45554;51.096;16.976;2022-12-07T06:09:39;99715.10;;;1.43;90.41
59686;BME280;45554;51.096;16.976;2022-12-07T06:12:10;99714.74;;;1.44;90.16
59686;BME280;45554;51.096;16.976;2022-12-07T06:14:57;99714.23;;;1.44;89.70
59686;BME280;45554;51.096;16.976;2022-12-07T06:17:25;99710.80;;;1.43;89.88
59686;BME280;45554;51.096;16.976;2022-12-07T06:19:53;99719.96;;;1.42;89.76
59686;BME280;45554;51.096;16.976;2022-12-07T06:22:21;99709.92;;;1.43;89.17
59686;BME280;45554;51.096;16.976;2022-12-07T06:24:50;99706.83;;;1.43;89.01
59686;BME280;45554;51.096;16.976;2022-12-07T06:27:18;99713.04;;;1.44;88.88
59686;BME280;45554;51.096;16.976;2022-12-07T06:29:46;99701.92;;;1.46;88.68
59686;BME280;45554;51.096;16.976;2022-12-07T06:32:13;99702.42;;;1.46;88.29
59686;BME280;45554;51.096;16.976;2022-12-07T06:34:41;99701.55;;;1.47;88.04
59686;BME280;45554;51.096;16.976;2022-12-07T06:37:09;99699.24;;;1.48;88.10
59686;BME280;45554;51.096;16.976;2022-12-07T06:39:37;99703.38;;;1.49;87.71
59686;BME280;45554;51.096;16.976;2022-12-07T06:42:06;99701.46;;;1.49;87.66
59686;BME280;45554;51.096;16.976;2022-12-07T06:44:34;99703.52;;;1.50;87.62
59686;BME280;45554;51.096;16.976;2022-12-07T06:47:02;99699.19;;;1.51;87.66
59686;BME280;45554;51.096;16.976;2022-12-07T06:49:50;99701.94;;;1.51;87.29
59686;BME280;45554;51.096;16.976;2022-12-07T06:52:18;99707.98;;;1.52;87.06
59686;BME280;45554;51.096;16.976;2022-12-07T06:54:46;99707.61;;;1.52;86.17
59686;BME280;45554;51.096;16.976;2022-12-07T06:57:15;99715.00;;;1.54;85.62
59686;BME280;45554;51.096;16.976;2022-12-07T06:59:42;99706.15;;;1.55;85.82
59686;BME280;45554;51.096;16.976;2022-12-07T07:02:11;99709.06;;;1.56;85.82
59686;BME280;45554;51.096;16.976;2022-12-07T07:04:39;99712.86;;;1.57;85.87
59686;BME280;45554;51.096;16.976;2022-12-07T07:07:07;99715.75;;;1.58;85.56
59686;BME280;45554;51.096;16.976;2022-12-07T07:09:35;99711.74;;;1.60;85.30
59686;BME280;45554;51.096;16.976;2022-12-07T07:12:03;99714.12;;;1.61;85.26
59686;BME280;45554;51.096;16.976;2022-12-07T07:14:31;99706.15;;;1.61;85.20
59686;BME280;45554;51.096;16.976;2022-12-07T07:16:59;99705.11;;;1.62;85.35
59686;BME280;45554;51.096;16.976;2022-12-07T07:19:27;99702.65;;;1.63;84.84
59686;BME280;45554;51.096;16.976;2022-12-07T07:21:55;99705.23;;;1.64;85.18
59686;BME280;45554;51.096;16.976;2022-12-07T07:24:23;99706.37;;;1.67;85.48
59686;BME280;45554;51.096;16.976;2022-12-07T07:26:51;99698.91;;;1.68;84.73
59686;BME280;45554;51.096;16.976;2022-12-07T07:29:19;99701.77;;;1.70;84.48
59686;BME280;45554;51.096;16.976;2022-12-07T07:31:47;99704.83;;;1.73;84.02
59686;BME280;45554;51.096;16.976;2022-12-07T07:34:15;99699.92;;;1.75;83.79
59686;BME280;45554;51.096;16.976;2022-12-07T07:36:43;99697.95;;;1.77;83.89
59686;BME280;45554;51.096;16.976;2022-12-07T07:39:11;99698.02;;;1.82;83.28
59686;BME280;45554;51.096;16.976;2022-12-07T07:41:40;99697.95;;;1.84;83.16
59686;BME280;45554;51.096;16.976;2022-12-07T07:44:12;99699.58;;;1.87;83.29
59686;BME280;45554;51.096;16.976;2022-12-07T07:46:40;99698.83;;;1.89;83.28
59686;BME280;45554;51.096;16.976;2022-12-07T07:49:09;99698.60;;;1.91;83.54
59686;BME280;45554;51.096;16.976;2022-12-07T07:51:38;99694.09;;;1.92;83.25
59686;BME280;45554;51.096;16.976;2022-12-07T07:54:05;99691.63;;;1.93;83.12
59686;BME280;45554;51.096;16.976;2022-12-07T07:56:35;99695.89;;;1.95;83.27
59686;BME280;45554;51.096;16.976;2022-12-07T07:59:03;99695.69;;;1.97;83.09
59686;BME280;45554;51.096;16.976;2022-12-07T08:01:31;99696.14;;;1.98;83.19
59686;BME280;45554;51.096;16.976;2022-12-07T08:04:00;99700.75;;;2.01;82.94
59686;BME280;45554;51.096;16.976;2022-12-07T08:06:28;99702.81;;;2.01;82.62
59686;BME280;45554;51.096;16.976;2022-12-07T08:08:59;99703.38;;;2.00;82.69
59686;BME280;45554;51.096;16.976;2022-12-07T08:11:27;99703.05;;;1.98;82.74
59686;BME280;45554;51.096;16.976;2022-12-07T08:13:55;99706.54;;;1.98;82.58
59686;BME280;45554;51.096;16.976;2022-12-07T08:16:25;99705.36;;;1.97;82.41
59686;BME280;45554;51.096;16.976;2022-12-07T08:18:53;99707.69;;;1.93;81.66
59686;BME280;45554;51.096;16.976;2022-12-07T08:21:21;99706.33;;;1.92;82.11
59686;BME280;45554;51.096;16.976;2022-12-07T08:23:49;99705.17;;;1.91;82.16
59686;BME280;45554;51.096;16.976;2022-12-07T08:26:17;99706.86;;;1.92;82.32
59686;BME280;45554;51.096;16.976;2022-12-07T08:28:45;99703.85;;;1.95;82.10
59686;BME280;45554;51.096;16.976;2022-12-07T08:31:16;99704.96;;;1.98;82.07
59686;BME280;45554;51.096;16.976;2022-12-07T08:33:45;99699.90;;;2.00;81.98
59686;BME280;45554;51.096;16.976;2022-12-07T08:36:15;99699.00;;;2.01;81.93
59686;BME280;45554;51.096;16.976;2022-12-07T08:38:44;99696.35;;;2.03;81.89
59686;BME280;45554;51.096;16.976;2022-12-07T08:41:32;99694.05;;;2.05;81.92
59686;BME280;45554;51.096;16.976;2022-12-07T08:44:03;99687.76;;;2.08;82.34
59686;BME280;45554;51.096;16.976;2022-12-07T08:46:38;99689.98;;;2.14;82.33
59686;BME280;45554;51.096;16.976;2022-12-07T08:49:10;99688.71;;;2.22;82.21
59686;BME280;45554;51.096;16.976;2022-12-07T08:51:40;99687.83;;;2.29;82.13
59686;BME280;45554;51.096;16.976;2022-12-07T08:54:11;99688.81;;;2.36;81.05
59686;BME280;45554;51.096;16.976;2022-12-07T08:56:40;99684.73;;;2.45;81.18
59686;BME280;45554;51.096;16.976;2022-12-07T08:59:08;99683.87;;;2.56;80.92
59686;BME280;45554;51.096;16.976;2022-12-07T09:01:36;99675.61;;;2.65;80.25
59686;BME280;45554;51.096;16.976;2022-12-07T09:04:04;99673.90;;;2.76;80.49
59686;BME280;45554;51.096;16.976;2022-12-07T09:06:33;99672.21;;;2.85;79.61
59686;BME280;45554;51.096;16.976;2022-12-07T09:09:03;99671.55;;;2.95;79.20
59686;BME280;45554;51.096;16.976;2022-12-07T09:11:30;99671.95;;;3.04;79.23
59686;BME280;45554;51.096;16.976;2022-12-07T09:13:58;99668.80;;;3.10;79.07
59686;BME280;45554;51.096;16.976;2022-12-07T09:16:27;99668.75;;;3.17;77.51
59686;BME280;45554;51.096;16.976;2022-12-07T09:18:55;99657.40;;;3.24;78.80
59686;BME280;45554;51.096;16.976;2022-12-07T09:21:23;99660.79;;;3.32;78.08
59686;BME280;45554;51.096;16.976;2022-12-07T09:23:51;99658.29;;;3.39;77.01
59686;BME280;45554;51.096;16.976;2022-12-07T09:26:19;99657.47;;;3.47;76.50
59686;BME280;45554;51.096;16.976;2022-12-07T09:28:47;99652.20;;;3.54;76.59
59686;BME280;45554;51.096;16.976;2022-12-07T09:31:15;99644.14;;;3.62;76.32
59686;BME280;45554;51.096;16.976;2022-12-07T09:33:56;99647.16;;;3.69;75.82
59686;BME280;45554;51.096;16.976;2022-12-07T09:36:28;99642.48;;;3.74;75.70
59686;BME280;45554;51.096;16.976;2022-12-07T09:38:56;99634.31;;;3.75;73.45
59686;BME280;45554;51.096;16.976;2022-12-07T09:41:26;99633.88;;;3.77;73.45
59686;BME280;45554;51.096;16.976;2022-12-07T09:44:04;99629.77;;;3.80;72.10
59686;BME280;45554;51.096;16.976;2022-12-07T09:46:38;99627.76;;;3.83;72.08
59686;BME280;45554;51.096;16.976;2022-12-07T09:49:16;99626.98;;;3.85;70.34
59686;BME280;45554;51.096;16.976;2022-12-07T09:51:46;99621.92;;;3.86;70.50
59686;BME280;45554;51.096;16.976;2022-12-07T09:54:16;99622.83;;;3.85;70.22
59686;BME280;45554;51.096;16.976;2022-12-07T09:56:44;99619.36;;;3.85;70.82
59686;BME280;45554;51.096;16.976;2022-12-07T09:59:17;99619.16;;;3.90;71.89
59686;BME280;45554;51.096;16.976;2022-12-07T10:01:48;99611.21;;;3.99;72.22
59686;BME280;45554;51.096;16.976;2022-12-07T10:04:21;99609.58;;;4.10;72.44
59686;BME280;45554;51.096;16.976;2022-12-07T10:06:50;99603.67;;;4.19;71.83
59686;BME280;45554;51.096;16.976;2022-12-07T10:09:21;99598.96;;;4.24;72.02
59686;BME280;45554;51.096;16.976;2022-12-07T10:12:09;99599.35;;;4.32;72.10
59686;BME280;45554;51.096;16.976;2022-12-07T10:15:00;99588.74;;;4.37;71.20
59686;BME280;45554;51.096;16.976;2022-12-07T10:17:40;99585.54;;;4.39;69.62
59686;BME280;45554;51.096;16.976;2022-12-07T10:20:24;99579.84;;;4.38;70.00
59686;BME280;45554;51.096;16.976;2022-12-07T10:23:04;99572.35;;;4.35;71.55
59686;BME280;45554;51.096;16.976;2022-12-07T10:25:36;99579.25;;;4.31;71.87
59686;BME280;45554;51.096;16.976;2022-12-07T10:28:13;99578.88;;;4.28;71.75
59686;BME280;45554;51.096;16.976;2022-12-07T10:31:03;99571.80;;;4.22;71.90
59686;BME280;45554;51.096;16.976;2022-12-07T10:33:53;99577.39;;;4.21;71.65
59686;BME280;45554;51.096;16.976;2022-12-07T10:36:40;99578.77;;;4.17;70.76
59686;BME280;45554;51.096;16.976;2022-12-07T10:39:17;99579.05;;;4.09;70.26
59686;BME280;45554;51.096;16.976;2022-12-07T10:42:19;99582.27;;;4.03;69.51
59686;BME280;45554;51.096;16.976;2022-12-07T10:44:49;99570.47;;;3.99;69.44
59686;BME280;45554;51.096;16.976;2022-12-07T10:47:20;99571.52;;;3.98;70.01
59686;BME280;45554;51.096;16.976;2022-12-07T10:50:17;99591.31;;;3.97;69.95
59686;BME280;45554;51.096;16.976;2022-12-07T11:01:32;99603.91;;;3.67;71.92
59686;BME280;45554;51.096;16.976;2022-12-07T11:04:38;99600.19;;;3.55;72.58
59686;BME280;45554;51.096;16.976;2022-12-07T11:07:18;99597.68;;;3.43;73.76
59686;BME280;45554;51.096;16.976;2022-12-07T11:16:19;99583.28;;;3.15;75.18
59686;BME280;45554;51.096;16.976;2022-12-07T11:22:04;99576.54;;;3.10;75.86
59686;BME280;45554;51.096;16.976;2022-12-07T11:24:47;99574.70;;;3.12;76.08
59686;BME280;45554;51.096;16.976;2022-12-07T11:27:43;99575.29;;;3.15;76.12
59686;BME280;45554;51.096;16.976;2022-12-07T11:30:19;99571.97;;;3.16;76.12
59686;BME280;45554;51.096;16.976;2022-12-07T11:33:15;99565.17;;;3.17;76.25
59686;BME280;45554;51.096;16.976;2022-12-07T11:35:57;99566.23;;;3.17;76.46
59686;BME280;45554;51.096;16.976;2022-12-07T11:42:00;99561.76;;;3.16;76.23
59686;BME280;45554;51.096;16.976;2022-12-07T11:47:36;99574.77;;;3.20;76.53
59686;BME280;45554;51.096;16.976;2022-12-07T11:50:24;99568.13;;;3.22;76.79
59686;BME280;45554;51.096;16.976;2022-12-07T11:55:50;99564.00;;;3.21;77.01
59686;BME280;45554;51.096;16.976;2022-12-07T11:58:34;99563.61;;;3.22;77.17
59686;BME280;45554;51.096;16.976;2022-12-07T12:04:10;99576.49;;;3.15;78.33
59686;BME280;45554;51.096;16.976;2022-12-07T12:06:43;99568.08;;;3.09;78.54
59686;BME280;45554;51.096;16.976;2022-12-07T12:09:28;99570.13;;;3.04;78.79
59686;BME280;45554;51.096;16.976;2022-12-07T12:12:13;99562.91;;;2.98;78.77
59686;BME280;45554;51.096;16.976;2022-12-07T12:20:43;99555.42;;;2.95;79.19
59686;BME280;45554;51.096;16.976;2022-12-07T12:23:29;99556.53;;;2.97;78.90
59686;BME280;45554;51.096;16.976;2022-12-07T12:26:07;99558.07;;;3.03;78.63
59686;BME280;45554;51.096;16.976;2022-12-07T12:29:02;99556.05;;;3.06;78.35
59686;BME280;45554;51.096;16.976;2022-12-07T12:31:40;99556.50;;;3.08;77.95
59686;BME280;45554;51.096;16.976;2022-12-07T12:34:38;99559.73;;;3.10;77.86
59686;BME280;45554;51.096;16.976;2022-12-07T12:42:45;99551.50;;;3.18;76.82
59686;BME280;45554;51.096;16.976;2022-12-07T12:45:22;99549.91;;;3.19;76.64
59686;BME280;45554;51.096;16.976;2022-12-07T12:47:59;99544.55;;;3.18;76.46
59686;BME280;45554;51.096;16.976;2022-12-07T12:50:34;99542.80;;;3.18;76.51
59686;BME280;45554;51.096;16.976;2022-12-07T12:53:12;99538.36;;;3.17;76.97
59686;BME280;45554;51.096;16.976;2022-12-07T12:55:46;99543.36;;;3.18;76.65
59686;BME280;45554;51.096;16.976;2022-12-07T13:04:16;99547.91;;;3.21;76.37
59686;BME280;45554;51.096;16.976;2022-12-07T13:06:55;99530.85;;;3.18;76.61
59686;BME280;45554;51.096;16.976;2022-12-07T13:09:31;99542.76;;;3.20;76.73
59686;BME280;45554;51.096;16.976;2022-12-07T13:12:04;99545.29;;;3.22;76.59
59686;BME280;45554;51.096;16.976;2022-12-07T13:14:57;99545.27;;;3.22;76.57
59686;BME280;45554;51.096;16.976;2022-12-07T13:20:03;99540.36;;;3.14;76.62
59686;BME280;45554;51.096;16.976;2022-12-07T13:25:10;99555.74;;;3.20;77.07
59686;BME280;45554;51.096;16.976;2022-12-07T13:27:41;99553.55;;;3.18;77.18
59686;BME280;45554;51.096;16.976;2022-12-07T13:30:16;99553.05;;;3.18;77.23
59686;BME280;45554;51.096;16.976;2022-12-07T13:32:56;99561.46;;;3.20;76.92
59686;BME280;45554;51.096;16.976;2022-12-07T13:35:53;99556.23;;;3.20;77.22
59686;BME280;45554;51.096;16.976;2022-12-07T13:38:35;99561.55;;;3.22;77.05
59686;BME280;45554;51.096;16.976;2022-12-07T13:41:12;99562.03;;;3.23;76.78
59686;BME280;45554;51.096;16.976;2022-12-07T13:43:46;99550.27;;;3.23;76.65
59686;BME280;45554;51.096;16.976;2022-12-07T13:46:17;99555.59;;;3.24;76.60
59686;BME280;45554;51.096;16.976;2022-12-07T13:48:50;99556.35;;;3.22;76.60
59686;BME280;45554;51.096;16.976;2022-12-07T13:51:24;99556.29;;;3.19;76.63
59686;BME280;45554;51.096;16.976;2022-12-07T13:54:01;99549.11;;;3.16;76.54
59686;BME280;45554;51.096;16.976;2022-12-07T13:56:33;99550.09;;;3.13;76.78
59686;BME280;45554;51.096;16.976;2022-12-07T13:59:03;99549.80;;;3.11;76.69
59686;BME280;45554;51.096;16.976;2022-12-07T14:01:32;99545.49;;;3.11;76.86
59686;BME280;45554;51.096;16.976;2022-12-07T14:04:17;99552.45;;;3.10;76.66
59686;BME280;45554;51.096;16.976;2022-12-07T14:06:50;99548.89;;;3.08;76.97
59686;BME280;45554;51.096;16.976;2022-12-07T14:09:23;99551.85;;;3.07;76.83
59686;BME280;45554;51.096;16.976;2022-12-07T14:11:53;99551.48;;;3.08;77.17
59686;BME280;45554;51.096;16.976;2022-12-07T14:14:28;99557.68;;;3.09;76.96
59686;BME280;45554;51.096;16.976;2022-12-07T14:17:15;99554.17;;;3.11;76.87
59686;BME280;45554;51.096;16.976;2022-12-07T14:19:51;99549.64;;;3.11;76.81
59686;BME280;45554;51.096;16.976;2022-12-07T14:22:24;99550.33;;;3.11;76.32
59686;BME280;45554;51.096;16.976;2022-12-07T14:27:33;99542.56;;;3.10;76.08
59686;BME280;45554;51.096;16.976;2022-12-07T14:30:03;99541.64;;;3.08;75.99
59686;BME280;45554;51.096;16.976;2022-12-07T14:32:36;99543.45;;;3.05;76.14
59686;BME280;45554;51.096;16.976;2022-12-07T14:35:11;99553.27;;;3.02;75.75
59686;BME280;45554;51.096;16.976;2022-12-07T14:37:40;99552.70;;;2.98;75.74
59686;BME280;45554;51.096;16.976;2022-12-07T14:40:13;99555.42;;;2.95;75.43
59686;BME280;45554;51.096;16.976;2022-12-07T14:42:43;99543.40;;;2.92;75.60
59686;BME280;45554;51.096;16.976;2022-12-07T14:45:14;99549.89;;;2.89;75.54
59686;BME280;45554;51.096;16.976;2022-12-07T14:47:44;99546.59;;;2.84;75.21
59686;BME280;45554;51.096;16.976;2022-12-07T14:50:36;99553.63;;;2.81;75.41
59686;BME280;45554;51.096;16.976;2022-12-07T14:53:12;99551.14;;;2.78;75.47
59686;BME280;45554;51.096;16.976;2022-12-07T14:55:48;99551.09;;;2.74;75.31
59686;BME280;45554;51.096;16.976;2022-12-07T14:58:17;99552.96;;;2.70;75.54
59686;BME280;45554;51.096;16.976;2022-12-07T15:00:45;99553.45;;;2.66;75.76